Time;durP1;ratioP1;P1;durP2;ratioP2;P2;SDS_P1;SDS_P2;PMS_P1;PMS_P2;Temp;Humidity;BMP_temperature;BMP_pressure;BME280_temperature;BME280_humidity;BME280_pressure;Samples;Min_cycle;Max_cycle;Signal;HPM_P1;HPM_P2
2022/12/30 00:00:47;;;;;;;0.20;0.20;;;19.70;67.60;;;;;;5053826;28;20021;-76
2022/12/30 00:03:13;;;;;;;0.35;0.28;;;19.70;67.70;;;;;;5053802;28;20506;-76
2022/12/30 00:05:38;;;;;;;0.55;0.40;;;19.70;67.70;;;;;;5055216;28;20021;-76
2022/12/30 00:08:45;;;;;;;0.52;0.50;;;19.70;67.80;;;;;;5053680;28;20072;-76
2022/12/30 00:10:50;;;;;;;0.70;0.30;;;19.70;67.90;;;;;;5055034;28;20032;-78
2022/12/30 00:35:17;;;;;;;0.52;0.38;;;19.70;68.30;;;;;;5053610;28;20083;-77
2022/12/30 00:37:43;;;;;;;0.63;0.30;;;19.80;68.50;;;;;;5053485;28;20471;-77
2022/12/30 00:40:10;;;;;;;1.38;0.68;;;19.80;68.50;;;;;;5054443;28;20483;-77
2022/12/30 00:45:20;;;;;;;0.50;0.30;;;19.80;68.60;;;;;;5054466;28;20040;-77
2022/12/30 00:47:45;;;;;;;1.17;0.30;;;19.80;68.70;;;;;;5053284;28;20036;-77
2022/12/30 00:58:23;;;;;;;0.70;0.35;;;19.80;68.80;;;;;;5053156;28;20063;-76
2022/12/30 01:00:49;;;;;;;0.60;0.30;;;19.90;69.00;;;;;;5054147;28;20025;-76
2022/12/30 01:03:14;;;;;;;1.77;0.25;;;19.80;68.90;;;;;;5054158;28;20033;-76
2022/12/30 01:05:40;;;;;;;2.25;0.50;;;19.90;69.00;;;;;;5052927;28;20527;-76
2022/12/30 01:08:06;;;;;;;2.20;0.32;;;19.90;68.90;;;;;;5052676;28;20483;-76
2022/12/30 01:10:31;;;;;;;1.88;0.50;;;19.90;68.90;;;;;;5036170;28;20381;-76
2022/12/30 01:12:57;;;;;;;1.13;0.40;;;19.90;68.90;;;;;;5052406;28;20479;-76
2022/12/30 01:15:23;;;;;;;0.75;0.30;;;19.90;69.90;;;;;;5052797;28;20092;-76
2022/12/30 01:17:48;;;;;;;0.68;0.50;;;19.90;68.90;;;;;;5052639;28;20037;-76
2022/12/30 01:20:14;;;;;;;0.77;0.40;;;19.90;68.90;;;;;;5054015;28;20060;-76
2022/12/30 01:22:40;;;;;;;0.47;0.32;;;19.90;69.00;;;;;;5053664;28;20439;-76
2022/12/30 01:25:06;;;;;;;0.65;0.38;;;19.90;68.90;;;;;;5053466;28;20479;-76
2022/12/30 01:27:32;;;;;;;0.60;0.40;;;19.90;68.90;;;;;;5052374;28;20025;-77
2022/12/30 01:29:58;;;;;;;0.85;0.45;;;20.00;69.00;;;;;;5052239;28;20025;-76
2022/12/30 01:32:23;;;;;;;1.30;0.57;;;19.90;68.90;;;;;;5052321;28;20021;-76
2022/12/30 01:34:52;;;;;;;0.65;0.35;;;19.90;68.90;;;;;;5053293;28;20029;-76
2022/12/30 01:37:18;;;;;;;0.30;0.30;;;20.00;69.00;;;;;;5051836;28;20021;-76
2022/12/30 01:39:43;;;;;;;0.47;0.40;;;19.90;68.80;;;;;;5053514;28;20040;-76
2022/12/30 01:42:22;;;;;;;0.22;0.20;;;19.90;68.90;;;;;;5053246;28;20028;-76
2022/12/30 01:44:48;;;;;;;0.98;0.50;;;20.00;69.00;;;;;;5052184;28;20029;-76
2022/12/30 01:47:34;;;;;;;0.98;0.40;;;19.90;69.00;;;;;;5053480;28;20028;-76
2022/12/30 01:50:05;;;;;;;1.48;0.50;;;20.00;69.00;;;;;;5051967;28;20108;-76
2022/12/30 01:52:31;;;;;;;1.73;0.30;;;19.90;68.90;;;;;;5052262;28;20032;-78
2022/12/30 01:55:02;;;;;;;1.02;0.50;;;19.90;68.90;;;;;;5052045;28;20029;-76
2022/12/30 01:57:28;;;;;;;0.80;0.40;;;19.90;69.10;;;;;;5052267;28;20029;-76
2022/12/30 01:59:53;;;;;;;0.90;0.20;;;19.90;69.10;;;;;;5051889;28;20459;-77
2022/12/30 02:02:19;;;;;;;0.80;0.40;;;20.00;69.20;;;;;;5033772;28;20054;-77
2022/12/30 02:04:45;;;;;;;1.30;0.40;;;20.00;69.20;;;;;;5033084;28;20075;-77
2022/12/30 02:07:29;;;;;;;2.15;0.50;;;20.00;69.20;;;;;;5033082;28;20029;-76
2022/12/30 02:09:55;;;;;;;0.80;0.38;;;20.00;69.20;;;;;;5017546;28;20034;-76
2022/12/30 02:12:20;;;;;;;3.65;0.60;;;20.00;69.20;;;;;;5031526;28;20030;-76
2022/12/30 02:14:46;;;;;;;0.55;0.32;;;20.00;69.20;;;;;;5033136;28;20030;-77
2022/12/30 02:17:32;;;;;;;0.77;0.38;;;20.00;69.20;;;;;;5015292;28;20021;-77
2022/12/30 02:20:24;;;;;;;0.80;0.35;;;20.00;69.20;;;;;;5030857;28;20031;-77
2022/12/30 02:23:14;;;;;;;1.95;0.40;;;20.00;69.30;;;;;;5017653;28;20045;-77
2022/12/30 02:25:42;;;;;;;0.70;0.40;;;20.00;69.30;;;;;;5032798;28;20045;-77
2022/12/30 02:28:17;;;;;;;0.90;0.43;;;20.00;69.30;;;;;;5032578;28;20033;-77
2022/12/30 02:31:02;;;;;;;1.67;0.40;;;20.00;69.30;;;;;;5031984;28;20025;-77
2022/12/30 02:33:36;;;;;;;1.00;0.40;;;20.00;69.30;;;;;;5032818;28;20032;-77
2022/12/30 02:36:10;;;;;;;0.40;0.28;;;20.00;69.30;;;;;;5031751;28;20013;-77
2022/12/30 02:38:57;;;;;;;1.27;0.50;;;20.00;69.40;;;;;;5032907;28;20030;-76
2022/12/30 02:44:38;;;;;;;1.40;0.50;;;20.00;69.50;;;;;;5031650;28;20388;-77
2022/12/30 02:47:28;;;;;;;0.60;0.40;;;20.00;69.40;;;;;;5033275;28;20033;-77
2022/12/30 02:52:49;;;;;;;1.00;0.50;;;20.00;69.40;;;;;;5035655;28;20511;-77
2022/12/30 02:55:15;;;;;;;0.47;0.20;;;20.00;69.40;;;;;;5035305;28;20017;-77
2022/12/30 02:57:41;;;;;;;1.20;0.40;;;20.00;69.40;;;;;;5035564;28;20034;-77
2022/12/30 03:06:04;;;;;;;1.13;0.40;;;20.00;69.50;;;;;;5036642;28;20103;-76
2022/12/30 03:08:40;;;;;;;5.82;0.55;;;20.00;69.60;;;;;;5035879;28;20384;-77
2022/12/30 03:11:16;;;;;;;0.93;0.40;;;20.00;69.50;;;;;;5034879;28;20029;-77
2022/12/30 03:14:04;;;;;;;1.02;0.28;;;20.00;69.50;;;;;;5019334;28;20371;-77
2022/12/30 03:16:55;;;;;;;0.50;0.47;;;20.00;69.40;;;;;;5034672;28;20415;-77
2022/12/30 03:19:25;;;;;;;1.15;0.47;;;20.00;69.40;;;;;;5034729;28;20454;-77
2022/12/30 03:21:52;;;;;;;0.40;0.40;;;20.00;69.40;;;;;;5034990;28;20079;-77
2022/12/30 03:27:05;;;;;;;0.50;0.30;;;20.00;69.40;;;;;;5034896;28;20040;-77
2022/12/30 03:30:00;;;;;;;0.60;0.30;;;20.00;69.40;;;;;;5034614;28;20076;-77
2022/12/30 03:32:25;;;;;;;1.10;0.43;;;20.00;69.30;;;;;;5034751;28;20028;-77
2022/12/30 03:34:51;;;;;;;0.35;0.30;;;20.00;69.30;;;;;;5035744;28;20027;-77
2022/12/30 03:37:24;;;;;;;0.38;0.35;;;20.00;69.30;;;;;;5034464;28;20026;-77
2022/12/30 03:40:02;;;;;;;0.93;0.30;;;20.00;69.30;;;;;;5017780;28;20120;-77
2022/12/30 03:42:28;;;;;;;0.30;0.30;;;20.00;69.30;;;;;;5034520;28;20563;-76
2022/12/30 03:44:53;;;;;;;1.02;0.45;;;20.00;69.30;;;;;;5034328;28;20108;-77
2022/12/30 03:47:19;;;;;;;0.60;0.40;;;20.10;69.40;;;;;;5034060;28;20033;-77
2022/12/30 03:49:45;;;;;;;5.60;0.38;;;20.00;69.30;;;;;;5034345;28;20021;-77
2022/12/30 03:52:12;;;;;;;0.60;0.30;;;20.10;69.30;;;;;;5034208;28;20424;-77
2022/12/30 03:54:37;;;;;;;1.00;0.40;;;20.10;69.40;;;;;;5034265;28;20026;-76
2022/12/30 03:57:03;;;;;;;0.40;0.30;;;20.10;69.50;;;;;;5034278;28;20079;-76
2022/12/30 03:59:29;;;;;;;2.25;0.28;;;20.10;69.40;;;;;;5033514;28;20488;-76
2022/12/30 04:01:54;;;;;;;2.08;0.30;;;20.10;69.60;;;;;;5034104;28;20050;-76
2022/12/30 04:04:20;;;;;;;0.80;0.38;;;20.10;69.50;;;;;;5035195;28;20024;-76
2022/12/30 04:06:46;;;;;;;2.90;0.25;;;20.10;69.60;;;;;;5033836;28;20030;-76
2022/12/30 04:09:12;;;;;;;0.57;0.22;;;20.10;69.50;;;;;;5033699;28;20025;-76
2022/12/30 04:11:37;;;;;;;1.20;0.43;;;20.10;69.50;;;;;;5035104;28;20108;-76
2022/12/30 04:14:03;;;;;;;2.08;0.30;;;20.10;69.50;;;;;;5035422;28;20028;-76
2022/12/30 04:16:29;;;;;;;0.95;0.40;;;20.10;69.40;;;;;;5033745;28;20025;-77
2022/12/30 04:18:54;;;;;;;1.02;0.30;;;20.10;69.50;;;;;;5033851;28;20095;-77
2022/12/30 04:21:20;;;;;;;0.38;0.30;;;20.10;69.50;;;;;;5033790;28;20072;-77
2022/12/30 04:23:46;;;;;;;0.40;0.22;;;20.10;69.50;;;;;;5034993;28;20049;-77
2022/12/30 04:26:11;;;;;;;1.40;0.22;;;20.10;69.50;;;;;;5033812;28;20100;-76
2022/12/30 04:28:37;;;;;;;0.73;0.28;;;20.10;69.40;;;;;;5033483;28;20071;-76
2022/12/30 04:31:03;;;;;;;0.50;0.30;;;20.10;69.40;;;;;;5033560;28;20025;-76
2022/12/30 04:33:28;;;;;;;1.20;0.20;;;20.10;69.40;;;;;;5034580;28;20373;-76
2022/12/30 04:35:54;;;;;;;0.43;0.28;;;20.10;70.50;;;;;;5033623;28;20045;-76
2022/12/30 04:38:20;;;;;;;1.60;0.30;;;20.10;69.50;;;;;;5034350;28;20064;-76
2022/12/30 04:40:45;;;;;;;0.52;0.30;;;20.10;69.50;;;;;;5034584;28;20037;-76
2022/12/30 04:43:11;;;;;;;2.40;0.38;;;20.10;69.60;;;;;;5034407;28;20498;-76
2022/12/30 04:45:36;;;;;;;0.55;0.28;;;20.10;69.60;;;;;;5032983;28;20067;-76
2022/12/30 04:48:02;;;;;;;0.68;0.20;;;20.10;69.60;;;;;;5033426;28;20057;-77
2022/12/30 04:50:28;;;;;;;0.47;0.30;;;20.10;69.60;;;;;;5034534;28;20456;-77
2022/12/30 04:52:53;;;;;;;0.60;0.20;;;20.10;69.60;;;;;;5033319;28;20045;-77
2022/12/30 04:55:19;;;;;;;0.40;0.22;;;20.10;69.70;;;;;;5032959;28;20542;-77
2022/12/30 04:57:45;;;;;;;0.20;0.20;;;20.10;69.70;;;;;;5034183;28;20029;-76
2022/12/30 05:00:11;;;;;;;0.50;0.30;;;20.10;69.80;;;;;;5034042;28;20124;-76
2022/12/30 05:02:37;;;;;;;0.60;0.20;;;20.10;69.80;;;;;;5033986;28;20050;-77
2022/12/30 05:05:03;;;;;;;0.43;0.30;;;20.10;69.90;;;;;;5032736;28;20029;-77
2022/12/30 05:07:29;;;;;;;0.45;0.40;;;20.10;69.90;;;;;;5033950;28;20034;-77
2022/12/30 05:09:54;;;;;;;0.40;0.30;;;20.10;70.90;;;;;;5032278;28;20034;-77
2022/12/30 05:12:20;;;;;;;1.02;0.32;;;20.10;69.90;;;;;;5033858;28;20024;-77
2022/12/30 05:14:46;;;;;;;0.47;0.30;;;20.10;71.00;;;;;;5034128;28;20495;-77
2022/12/30 05:17:11;;;;;;;0.55;0.30;;;20.10;70.00;;;;;;5033782;28;20028;-76
2022/12/30 05:19:37;;;;;;;0.43;0.30;;;20.10;70.00;;;;;;5033800;28;20104;-77
2022/12/30 05:22:03;;;;;;;1.08;0.30;;;20.10;70.00;;;;;;5032556;28;20104;-77
2022/12/30 05:27:12;;;;;;;1.55;0.40;;;20.10;70.00;;;;;;5033901;28;20037;-77
2022/12/30 05:29:38;;;;;;;0.40;0.30;;;20.10;70.10;;;;;;5033434;28;20029;-77
2022/12/30 05:32:04;;;;;;;0.47;0.30;;;20.10;70.10;;;;;;5032464;28;20022;-77
2022/12/30 05:34:29;;;;;;;0.45;0.30;;;20.10;70.10;;;;;;5032409;28;20033;-77
2022/12/30 05:36:55;;;;;;;0.75;0.30;;;20.10;70.10;;;;;;5032218;28;20021;-76
2022/12/30 05:39:20;;;;;;;3.03;0.30;;;20.10;70.20;;;;;;5033373;28;20396;-77
2022/12/30 05:41:46;;;;;;;0.35;0.20;;;20.10;70.20;;;;;;5033487;28;20480;-77
2022/12/30 05:44:12;;;;;;;0.10;0.10;;;20.10;70.20;;;;;;5032134;28;20029;-77
2022/12/30 05:46:37;;;;;;;0.73;0.20;;;20.10;70.20;;;;;;5032151;28;20026;-77
2022/12/30 05:49:03;;;;;;;0.65;0.32;;;20.10;70.20;;;;;;5033229;28;20038;-77
2022/12/30 05:51:29;;;;;;;0.57;0.20;;;20.10;70.20;;;;;;5031939;28;20108;-75
2022/12/30 05:53:55;;;;;;;0.45;0.22;;;20.10;70.20;;;;;;5032182;28;20105;-76
2022/12/30 05:56:21;;;;;;;0.20;0.20;;;20.10;70.20;;;;;;5032049;28;20041;-77
2022/12/30 05:58:46;;;;;;;0.35;0.22;;;20.10;70.20;;;;;;5031687;28;20036;-76
2022/12/30 06:01:12;;;;;;;1.58;0.20;;;20.10;70.30;;;;;;5033025;28;20050;-76
2022/12/30 06:03:37;;;;;;;0.57;0.22;;;20.10;70.30;;;;;;5031524;28;20038;-76
2022/12/30 06:06:05;;;;;;;0.55;0.22;;;20.10;70.30;;;;;;5032960;28;20030;-76
2022/12/30 06:08:31;;;;;;;0.30;0.20;;;20.10;70.30;;;;;;5015603;28;20088;-76
2022/12/30 06:10:56;;;;;;;0.10;0.10;;;20.10;70.40;;;;;;5015407;28;20427;-76
2022/12/30 06:13:22;;;;;;;0.25;0.20;;;20.10;70.30;;;;;;5033018;28;20105;-77
2022/12/30 06:15:47;;;;;;;0.28;0.20;;;20.10;70.30;;;;;;5033127;28;20079;-76
2022/12/30 06:18:13;;;;;;;0.90;0.30;;;20.10;70.30;;;;;;5032329;28;20033;-76
2022/12/30 06:20:39;;;;;;;0.20;0.20;;;20.10;70.50;;;;;;5032897;28;20053;-76
2022/12/30 06:23:04;;;;;;;0.30;0.20;;;20.10;70.50;;;;;;5032404;28;20033;-76
2022/12/30 06:25:32;;;;;;;0.20;0.20;;;20.10;71.50;;;;;;5032618;28;20087;-77
2022/12/30 06:27:57;;;;;;;0.32;0.25;;;20.10;70.50;;;;;;5031546;28;20039;-76
2022/12/30 06:30:23;;;;;;;1.10;0.30;;;20.20;70.50;;;;;;5032775;28;20022;-76
2022/12/30 06:32:49;;;;;;;0.28;0.13;;;20.10;70.50;;;;;;5032464;28;20399;-76
2022/12/30 06:35:14;;;;;;;0.30;0.15;;;20.20;70.50;;;;;;5031289;28;20556;-76
2022/12/30 06:37:40;;;;;;;1.77;0.20;;;20.20;70.50;;;;;;5030803;28;20109;-76
2022/12/30 06:40:07;;;;;;;0.38;0.20;;;20.10;70.50;;;;;;5032206;28;20029;-76
2022/12/30 06:42:33;;;;;;;0.40;0.20;;;20.20;70.50;;;;;;5030863;28;20030;-75
2022/12/30 06:44:58;;;;;;;0.65;0.20;;;20.20;70.70;;;;;;5032108;28;20193;-76
2022/12/30 06:47:25;;;;;;;0.30;0.10;;;20.20;70.60;;;;;;5030568;28;20686;-76
2022/12/30 06:49:50;;;;;;;2.38;0.30;;;20.20;70.60;;;;;;5030877;28;20033;-76
2022/12/30 06:52:16;;;;;;;0.52;0.28;;;20.20;70.70;;;;;;5030845;28;20424;-77
2022/12/30 06:54:41;;;;;;;2.17;0.38;;;20.20;70.70;;;;;;5031742;28;20511;-78
2022/12/30 06:57:07;;;;;;;0.22;0.20;;;20.20;70.80;;;;;;5032174;28;20026;-78
2022/12/30 06:59:33;;;;;;;0.20;0.10;;;20.20;70.70;;;;;;5030754;28;20179;-79
2022/12/30 07:01:58;;;;;;;0.20;0.20;;;20.10;70.60;;;;;;5031474;28;20049;-79
2022/12/30 07:04:24;;;;;;;0.47;0.30;;;20.10;70.60;;;;;;5030736;28;20025;-81
2022/12/30 07:06:50;;;;;;;2.83;0.20;;;20.10;70.60;;;;;;5030519;28;20480;-78
2022/12/30 07:09:16;;;;;;;0.43;0.20;;;20.10;70.60;;;;;;5031864;28;20030;-79
2022/12/30 07:11:42;;;;;;;0.20;0.20;;;20.00;70.50;;;;;;5031526;28;20029;-79
2022/12/30 07:14:08;;;;;;;2.15;0.20;;;20.00;70.50;;;;;;5030610;28;20075;-80
2022/12/30 07:16:33;;;;;;;0.40;0.20;;;19.90;70.50;;;;;;5030366;28;20026;-73
2022/12/30 07:18:59;;;;;;;0.40;0.28;;;19.90;70.50;;;;;;5031913;28;20026;-73
2022/12/30 07:21:25;;;;;;;0.38;0.20;;;19.90;70.60;;;;;;5028996;28;20404;-73
2022/12/30 07:23:51;;;;;;;0.35;0.35;;;19.90;70.50;;;;;;5030198;28;20048;-73
2022/12/30 07:26:17;;;;;;;0.35;0.25;;;19.80;70.40;;;;;;5030063;28;20101;-73
2022/12/30 07:28:42;;;;;;;0.55;0.20;;;19.80;70.50;;;;;;5061794;28;20113;-73
2022/12/30 07:31:08;;;;;;;0.20;0.10;;;19.80;70.50;;;;;;5031245;28;20124;-73
2022/12/30 07:33:33;;;;;;;1.50;0.32;;;19.70;70.50;;;;;;5032076;28;20022;-73
2022/12/30 07:35:59;;;;;;;0.50;0.20;;;19.70;70.50;;;;;;5035214;28;20022;-73
2022/12/30 07:38:25;;;;;;;0.30;0.20;;;19.70;70.50;;;;;;5034842;28;20025;-73
2022/12/30 07:40:50;;;;;;;3.50;0.50;;;19.60;70.50;;;;;;5034967;28;20032;-72
2022/12/30 07:43:16;;;;;;;3.65;0.60;;;19.60;70.40;;;;;;5050448;28;20036;-72
2022/12/30 07:45:42;;;;;;;6.85;0.60;;;19.60;70.50;;;;;;5034329;28;20026;-73
2022/12/30 07:48:07;;;;;;;0.63;0.50;;;19.50;70.50;;;;;;5066223;28;20029;-72
2022/12/30 07:50:33;;;;;;;2.60;0.50;;;19.50;70.50;;;;;;5066744;28;20033;-72
2022/12/30 07:52:59;;;;;;;1.10;0.40;;;19.50;70.60;;;;;;5033504;28;20022;-72
2022/12/30 07:55:25;;;;;;;1.48;0.30;;;19.40;70.40;;;;;;5066583;28;20078;-72
2022/12/30 07:57:50;;;;;;;0.73;0.40;;;19.40;70.50;;;;;;5034481;28;20112;-72
2022/12/30 08:00:16;;;;;;;1.55;0.30;;;19.40;70.50;;;;;;5031918;28;20215;-72
2022/12/30 08:02:42;;;;;;;2.67;0.50;;;19.30;70.50;;;;;;5033558;28;20180;-72
2022/12/30 08:05:08;;;;;;;1.00;0.40;;;19.30;70.50;;;;;;5033512;28;20076;-72
2022/12/30 08:07:34;;;;;;;1.05;0.45;;;19.30;70.50;;;;;;5033103;28;20447;-72
2022/12/30 08:10:00;;;;;;;1.35;0.43;;;19.20;70.50;;;;;;5033265;28;20017;-72
2022/12/30 08:12:26;;;;;;;2.58;0.70;;;19.20;70.40;;;;;;5033089;28;20022;-72
2022/12/30 08:14:51;;;;;;;1.27;0.50;;;19.20;70.50;;;;;;5034162;28;20029;-72
2022/12/30 08:17:17;;;;;;;0.52;0.50;;;19.20;70.50;;;;;;5034467;28;20017;-72
2022/12/30 08:19:42;;;;;;;1.73;0.45;;;19.20;70.50;;;;;;5034251;28;20088;-72
2022/12/30 08:22:08;;;;;;;2.67;0.90;;;19.10;70.60;;;;;;5034094;28;20407;-72
2022/12/30 08:24:34;;;;;;;1.25;0.60;;;19.10;70.60;;;;;;5032980;28;20483;-72
2022/12/30 08:26:59;;;;;;;1.73;0.50;;;19.10;70.60;;;;;;5034122;28;20026;-72
2022/12/30 08:29:25;;;;;;;1.88;0.60;;;19.10;70.60;;;;;;5032593;28;20462;-72
2022/12/30 08:31:51;;;;;;;2.08;0.75;;;19.00;70.60;;;;;;5032819;28;20096;-72
2022/12/30 08:34:17;;;;;;;1.20;0.50;;;19.00;70.70;;;;;;5033973;28;20025;-72
2022/12/30 08:36:43;;;;;;;1.70;0.50;;;19.00;70.70;;;;;;5012847;28;20025;-72
2022/12/30 08:39:09;;;;;;;1.23;0.50;;;19.00;70.70;;;;;;5012910;28;20026;-72
2022/12/30 08:41:36;;;;;;;1.60;0.50;;;19.00;70.70;;;;;;5013928;28;20088;-72
2022/12/30 08:44:02;;;;;;;0.77;0.45;;;18.90;70.60;;;;;;5012477;28;20057;-72
2022/12/30 08:46:28;;;;;;;1.10;0.60;;;18.90;70.60;;;;;;5012787;28;20037;-72
2022/12/30 08:48:54;;;;;;;0.73;0.55;;;18.90;70.70;;;;;;5012420;28;20036;-72
2022/12/30 08:51:20;;;;;;;0.77;0.52;;;18.90;70.70;;;;;;5013853;28;20025;-72
2022/12/30 08:53:45;;;;;;;1.13;0.40;;;18.90;70.90;;;;;;5012715;28;20483;-72
2022/12/30 08:56:21;;;;;;;1.25;0.65;;;18.80;70.70;;;;;;5013848;28;20021;-72
2022/12/30 08:58:47;;;;;;;1.70;0.70;;;18.80;71.70;;;;;;5012331;28;20030;-72
2022/12/30 09:01:17;;;;;;;1.23;0.60;;;18.70;71.80;;;;;;5021909;28;20088;-73
2022/12/30 09:03:43;;;;;;;1.52;0.40;;;18.70;70.80;;;;;;5032091;28;20156;-72
2022/12/30 09:06:09;;;;;;;0.73;0.30;;;18.70;70.80;;;;;;5033421;28;20108;-72
2022/12/30 09:08:35;;;;;;;0.50;0.40;;;18.70;70.80;;;;;;5030854;28;20545;-72
2022/12/30 09:11:05;;;;;;;1.25;0.40;;;18.70;70.90;;;;;;5012172;28;20026;-73
2022/12/30 09:13:31;;;;;;;0.98;0.60;;;18.70;70.90;;;;;;5012185;28;20392;-72
2022/12/30 09:15:57;;;;;;;0.57;0.30;;;18.60;70.90;;;;;;5012362;28;20022;-72
2022/12/30 09:18:23;;;;;;;2.33;0.50;;;18.60;70.90;;;;;;5012034;28;20030;-72
2022/12/30 09:20:49;;;;;;;0.45;0.30;;;18.60;70.90;;;;;;5012020;28;20029;-72
2022/12/30 09:23:14;;;;;;;0.50;0.40;;;18.60;71.00;;;;;;5013458;28;20022;-73
2022/12/30 09:25:40;;;;;;;2.25;0.40;;;18.50;70.90;;;;;;5013102;28;20105;-72
2022/12/30 09:28:06;;;;;;;1.73;0.68;;;18.50;71.00;;;;;;5012787;28;20030;-72
2022/12/30 09:30:31;;;;;;;1.48;0.57;;;18.50;71.00;;;;;;5012228;28;20460;-72
2022/12/30 09:32:57;;;;;;;1.20;0.50;;;18.50;71.00;;;;;;5012988;28;20397;-72
2022/12/30 09:35:22;;;;;;;1.98;0.60;;;18.50;71.10;;;;;;5013041;28;20022;-72
2022/12/30 09:37:48;;;;;;;0.38;0.30;;;18.40;71.00;;;;;;5012898;28;20081;-72
2022/12/30 09:40:15;;;;;;;0.30;0.20;;;18.40;71.00;;;;;;5011817;28;20026;-72
2022/12/30 09:45:58;;;;;;;0.75;0.32;;;18.40;71.10;;;;;;5011916;28;20125;-72
2022/12/30 09:48:26;;;;;;;1.23;0.60;;;18.40;71.10;;;;;;4990780;28;20157;-72
2022/12/30 09:50:54;;;;;;;1.65;0.52;;;18.30;71.10;;;;;;4958988;28;20109;-72
2022/12/30 09:53:38;;;;;;;1.05;0.40;;;18.30;71.10;;;;;;4974965;28;20027;-72
2022/12/30 09:56:26;;;;;;;1.02;0.32;;;18.30;71.20;;;;;;4990285;28;20498;-72
2022/12/30 09:58:51;;;;;;;0.77;0.50;;;18.20;71.00;;;;;;4974730;28;20038;-72
2022/12/30 10:01:39;;;;;;;0.60;0.40;;;18.20;71.10;;;;;;4984800;28;20049;-72
2022/12/30 10:04:11;;;;;;;0.77;0.40;;;18.20;71.20;;;;;;4994198;28;20025;-72
2022/12/30 10:06:38;;;;;;;0.77;0.40;;;18.20;71.20;;;;;;4978531;28;20121;-72
2022/12/30 10:09:25;;;;;;;1.42;0.45;;;18.20;71.20;;;;;;4977773;28;20033;-72
2022/12/30 10:12:06;;;;;;;1.35;0.40;;;18.20;71.20;;;;;;5010232;28;20038;-72
2022/12/30 10:14:35;;;;;;;0.70;0.47;;;18.10;71.20;;;;;;5010634;28;20061;-72
2022/12/30 10:17:11;;;;;;;1.65;0.57;;;18.10;71.20;;;;;;5010327;28;20029;-72
2022/12/30 10:19:36;;;;;;;1.25;0.50;;;18.10;71.20;;;;;;5010340;28;20042;-72
2022/12/30 10:22:15;;;;;;;0.68;0.40;;;18.10;71.20;;;;;;5010352;28;20647;-72
2022/12/30 10:24:47;;;;;;;0.60;0.40;;;18.10;71.30;;;;;;5002382;28;20103;-72
2022/12/30 10:27:20;;;;;;;0.63;0.47;;;18.00;71.20;;;;;;5032285;28;20025;-72
2022/12/30 10:29:46;;;;;;;1.10;0.32;;;18.00;71.20;;;;;;5032083;28;20032;-72
2022/12/30 10:32:22;;;;;;;0.60;0.50;;;18.00;71.20;;;;;;5014264;28;20026;-72
2022/12/30 10:34:50;;;;;;;0.95;0.50;;;18.00;71.20;;;;;;5032242;28;20022;-72
2022/12/30 10:37:31;;;;;;;1.38;0.60;;;18.00;71.20;;;;;;4998369;28;20021;-72
2022/12/30 10:39:56;;;;;;;1.00;0.40;;;18.00;71.30;;;;;;5016082;28;20092;-72
2022/12/30 10:42:57;;;;;;;0.77;0.40;;;18.00;71.40;;;;;;5031974;28;20080;-72
2022/12/30 10:45:47;;;;;;;0.63;0.30;;;18.00;71.30;;;;;;5029782;28;20547;-72
2022/12/30 10:48:27;;;;;;;0.68;0.40;;;18.00;71.40;;;;;;5030656;28;20525;-72
2022/12/30 10:50:53;;;;;;;0.40;0.28;;;17.90;71.30;;;;;;5014964;28;20017;-72
2022/12/30 10:53:20;;;;;;;1.35;0.45;;;17.90;71.40;;;;;;5014284;28;20541;-72
2022/12/30 10:55:53;;;;;;;0.90;0.35;;;17.90;71.40;;;;;;5030460;28;20026;-72
2022/12/30 10:58:48;;;;;;;1.50;0.40;;;17.90;71.40;;;;;;5031801;28;20061;-72
2022/12/30 11:01:21;;;;;;;0.60;0.22;;;17.90;71.40;;;;;;5022662;28;20456;-72
2022/12/30 11:03:56;;;;;;;0.77;0.38;;;17.90;71.40;;;;;;5030733;28;20028;-72
2022/12/30 11:06:29;;;;;;;1.75;0.60;;;17.80;71.30;;;;;;5030683;28;20056;-73
2022/12/30 11:09:15;;;;;;;0.85;0.50;;;17.80;71.40;;;;;;5029072;28;20096;-72
2022/12/30 11:15:12;;;;;;;1.45;0.57;;;17.80;71.40;;;;;;4994150;28;20531;-72
2022/12/30 11:17:46;;;;;;;1.02;0.40;;;17.80;71.50;;;;;;4961918;28;20030;-72
2022/12/30 11:20:41;;;;;;;0.77;0.40;;;17.70;71.40;;;;;;4962077;28;20035;-72
2022/12/30 11:23:25;;;;;;;1.00;0.50;;;17.70;71.40;;;;;;4985374;28;20357;-72
2022/12/30 11:25:51;;;;;;;1.02;0.55;;;17.70;71.50;;;;;;4977591;28;20226;-72
2022/12/30 11:28:46;;;;;;;1.55;0.65;;;17.70;71.50;;;;;;4977552;28;20113;-72
2022/12/30 11:31:13;;;;;;;0.82;0.40;;;17.70;71.50;;;;;;4993780;28;20034;-72
2022/12/30 11:33:52;;;;;;;1.17;0.40;;;17.70;71.50;;;;;;4977537;28;20080;-72
2022/12/30 11:36:29;;;;;;;0.22;0.22;;;17.60;71.50;;;;;;4977521;28;20536;-72
2022/12/30 11:38:56;;;;;;;1.63;0.50;;;17.60;71.50;;;;;;4962013;28;20038;-72
2022/12/30 11:41:26;;;;;;;0.52;0.32;;;17.60;71.50;;;;;;4961304;28;20026;-72
2022/12/30 11:43:58;;;;;;;0.85;0.43;;;17.60;71.60;;;;;;4961381;28;20105;-72
2022/12/30 11:46:33;;;;;;;0.43;0.38;;;17.60;71.50;;;;;;4993465;28;20041;-72
2022/12/30 11:49:16;;;;;;;2.08;0.50;;;17.50;71.50;;;;;;4978176;28;20038;-72
2022/12/30 11:51:45;;;;;;;0.90;0.35;;;17.50;71.50;;;;;;4985190;28;20042;-72
2022/12/30 11:54:11;;;;;;;0.60;0.32;;;17.60;72.60;;;;;;5013706;28;20065;-72
2022/12/30 11:56:55;;;;;;;0.65;0.55;;;17.50;72.50;;;;;;5015198;28;20030;-72
2022/12/30 11:59:28;;;;;;;1.70;0.50;;;17.50;71.50;;;;;;5014850;28;20076;-72
2022/12/30 12:01:58;;;;;;;0.80;0.38;;;17.50;71.50;;;;;;5012121;28;20049;-72
2022/12/30 12:04:38;;;;;;;1.00;0.40;;;17.50;71.70;;;;;;5016952;28;20033;-72
2022/12/30 12:07:37;;;;;;;1.55;0.60;;;17.40;71.60;;;;;;5034263;28;20029;-72
2022/12/30 12:10:03;;;;;;;0.77;0.47;;;17.50;71.60;;;;;;5019937;28;20041;-72
2022/12/30 12:12:37;;;;;;;0.73;0.40;;;17.50;72.60;;;;;;5014837;28;20033;-72
2022/12/30 12:15:35;;;;;;;0.98;0.40;;;17.40;71.60;;;;;;5013297;28;20022;-72
2022/12/30 12:18:11;;;;;;;0.95;0.57;;;17.40;71.60;;;;;;5012271;28;20053;-72
2022/12/30 12:20:49;;;;;;;0.65;0.38;;;17.40;71.60;;;;;;5011292;28;20026;-72
2022/12/30 12:23:17;;;;;;;0.80;0.60;;;17.40;71.60;;;;;;5011578;28;20033;-72
2022/12/30 12:26:06;;;;;;;0.80;0.28;;;17.40;71.60;;;;;;5012364;28;20034;-72
2022/12/30 12:28:32;;;;;;;1.27;0.40;;;17.40;71.70;;;;;;5012122;28;20050;-72
2022/12/30 12:31:01;;;;;;;0.63;0.55;;;17.40;71.60;;;;;;5012161;28;20029;-72
2022/12/30 12:33:32;;;;;;;0.57;0.40;;;17.40;71.70;;;;;;5012109;28;20038;-72
2022/12/30 12:36:21;;;;;;;0.85;0.30;;;17.30;71.70;;;;;;5012150;28;20026;-72
2022/12/30 12:38:55;;;;;;;0.95;0.40;;;17.30;71.70;;;;;;5011869;28;20030;-72
2022/12/30 12:41:30;;;;;;;0.50;0.10;;;17.30;71.60;;;;;;5011792;28;20037;-72
2022/12/30 12:44:31;;;;;;;0.60;0.40;;;17.30;71.60;;;;;;5028213;28;20117;-72
2022/12/30 12:47:00;;;;;;;1.02;0.57;;;17.30;71.70;;;;;;4972716;28;20043;-77
2022/12/30 12:49:53;;;;;;;0.55;0.30;;;17.30;71.70;;;;;;4972780;28;20082;-77
2022/12/30 12:52:25;;;;;;;2.05;0.30;;;17.30;71.70;;;;;;4972804;28;20039;-77
2022/12/30 12:54:57;;;;;;;1.45;0.40;;;17.20;71.70;;;;;;4992188;28;20528;-77
2022/12/30 12:57:40;;;;;;;1.13;0.52;;;17.20;71.70;;;;;;4975678;28;20592;-77
2022/12/30 13:00:07;;;;;;;;;;;17.20;71.70;;;;;;4976086;28;20038;-77
2022/12/30 13:03:06;;;;;;;0.80;0.30;;;17.20;71.70;;;;;;4991945;28;20008;-77
2022/12/30 13:05:54;;;;;;;0.60;0.50;;;17.20;71.70;;;;;;4991570;28;20128;-77
2022/12/30 13:08:26;;;;;;;0.95;0.40;;;17.20;71.70;;;;;;4975440;28;20559;-76
2022/12/30 13:11:20;;;;;;;1.80;0.38;;;17.20;71.80;;;;;;4972408;28;20030;-77
2022/12/30 13:14:05;;;;;;;0.98;0.50;;;17.20;71.70;;;;;;4972612;28;20027;-78
2022/12/30 13:16:34;;;;;;;0.95;0.50;;;17.10;71.80;;;;;;4972312;28;20422;-78
2022/12/30 13:19:00;;;;;;;0.75;0.30;;;17.10;71.70;;;;;;4972041;28;20031;-78
2022/12/30 13:21:25;;;;;;;1.23;0.43;;;17.10;71.80;;;;;;4972110;28;20050;-78
2022/12/30 13:23:54;;;;;;;0.98;0.40;;;17.10;71.80;;;;;;4999821;28;20455;-78
2022/12/30 13:26:21;;;;;;;1.25;0.38;;;17.10;71.80;;;;;;5011915;28;20018;-78
2022/12/30 13:28:50;;;;;;;1.10;0.40;;;17.10;71.80;;;;;;5012045;28;20026;-78
2022/12/30 13:31:54;;;;;;;0.82;0.40;;;17.10;71.80;;;;;;5011163;28;20021;-78
2022/12/30 13:34:23;;;;;;;0.93;0.40;;;17.10;71.80;;;;;;5011420;28;20096;-78
2022/12/30 13:36:52;;;;;;;0.93;0.38;;;17.00;71.80;;;;;;5013178;28;20041;-78
2022/12/30 13:39:49;;;;;;;0.98;0.43;;;17.00;71.80;;;;;;5013044;28;20052;-78
2022/12/30 13:42:47;;;;;;;1.02;0.50;;;17.00;71.70;;;;;;5011641;28;20026;-78
2022/12/30 13:45:44;;;;;;;0.50;0.40;;;17.00;71.80;;;;;;5011674;28;20017;-78
2022/12/30 13:48:09;;;;;;;1.10;0.50;;;17.00;71.80;;;;;;5011451;28;20022;-78
2022/12/30 13:50:35;;;;;;;1.27;0.50;;;17.00;71.80;;;;;;5013051;28;20477;-78
2022/12/30 13:53:02;;;;;;;0.85;0.30;;;17.00;71.80;;;;;;5011558;28;20026;-78
2022/12/30 13:55:38;;;;;;;1.17;0.45;;;16.90;71.80;;;;;;5011584;28;20104;-78
2022/12/30 13:58:08;;;;;;;1.27;0.50;;;16.90;71.80;;;;;;5011713;28;20392;-78
2022/12/30 14:00:41;;;;;;;1.02;0.30;;;16.90;71.80;;;;;;5015837;28;20068;-78